Date,TemperatureHighF,TemperatureAvgF,TemperatureLowF,DewpointHighF,DewpointAvgF,DewpointLowF,HumidityHigh,HumidityAvg,HumidityLow,PressureMaxIn,PressureMinIn,WindSpeedMaxMPH,WindSpeedAvgMPH,GustSpeedMaxMPH,PrecipitationSumIn
2013-1-1,33,31,26,32,30,25,100,97,94,29.96,29.85,6,2,16,0.14
2013-1-2,30,23,19,25,21,17,96,89,77,30.11,29.93,3,0,11,0.11
2013-1-3,34,24,13,28,21,11,95,88,78,30.12,30.01,9,2,25,0.00
2013-1-4,32,28,26,29,25,24,94,91,85,30.14,30.04,9,6,24,0.01
2013-1-5,37,30,25,31,27,24,94,88,78,30.29,30.09,8,3,20,0.00
2013-1-6,37,33,31,34,31,28,95,91,87,30.10,29.93,6,1,15,0.00
2013-1-7,36,30,20,32,28,18,95,91,81,30.36,30.10,7,2,17,0.01
2013-1-8,42,27,14,36,24,12,94,89,76,30.30,30.22,3,0,8,0.00
2013-1-9,42,32,22,41,31,20,100,96,91,30.37,30.16,8,1,20,0.04
2013-1-10,44,37,29,37,33,27,95,86,72,30.53,30.35,6,1,19,0.00
2013-1-11,42,40,37,42,37,32,100,91,77,30.35,30.01,9,2,20,0.26
2013-1-12,58,49,41,58,49,41,100,100,98,30.10,30.02,1,0,8,0.01
2013-1-13,64,58,51,59,55,51,100,93,82,30.03,29.91,6,2,20,0.00
2013-1-14,58,43,33,57,41,31,100,93,83,30.28,29.92,6,1,21,0.09
2013-1-15,35,33,31,33,31,29,99,93,87,30.27,30.04,6,0,11,0.04
2013-1-16,35,33,32,35,33,31,100,99,93,30.04,29.81,3,0,13,0.12
2013-1-17,33,32,30,31,30,29,97,94,90,30.09,29.93,6,1,14,0.02
2013-1-18,31,27,19,30,22,16,95,82,71,30.36,30.04,9,2,26,0.02
2013-1-19,49,39,26,34,27,19,77,62,54,30.22,29.83,6,2,23,0.00
2013-1-20,44,38,25,36,29,20,82,72,61,30.01,29.75,9,5,32,0.00
2013-1-21,30,23,13,25,20,10,93,88,77,30.01,29.78,8,2,21,0.19
2013-1-22,13,9,5,10,6,2,92,86,79,30.10,29.88,9,4,23,0.09
2013-1-23,18,11,4,11,7,1,93,84,72,30.14,29.93,6,2,18,0.02
2013-1-24,22,14,8,16,10,3,94,84,68,30.38,29.91,6,1,21,0.07
2013-1-25,20,13,7,19,10,4,96,90,80,30.37,29.91,6,1,14,0.40
2013-1-26,27,22,19,25,21,18,96,94,92,30.32,29.94,6,2,15,0.31
2013-1-27,33,24,11,26,20,9,94,85,73,30.43,30.29,4,0,9,0.00
2013-1-28,49,38,29,49,38,26,100,97,84,30.29,30.01,6,1,18,0.31
2013-1-29,60,54,49,58,52,49,100,97,88,30.06,29.88,6,2,23,0.07
2013-1-30,64,56,50,59,54,50,100,95,84,29.88,29.24,9,4,24,1.23
2013-1-31,50,27,22,50,24,17,100,88,81,29.74,29.23,9,5,32,0.13
2013-2-1,23,16,11,21,14,8,94,90,82,30.19,29.70,9,4,28,0.08
2013-2-2,23,16,5,23,14,3,98,92,85,30.18,29.85,5,1,15,0.36
2013-2-3,30,25,22,28,24,22,98,95,91,29.85,29.70,4,0,13,0.29
2013-2-4,30,27,24,30,25,21,99,92,77,29.89,29.75,3,0,16,0.21
2013-2-5,35,32,30,35,31,29,100,98,92,29.85,29.72,7,1,21,0.16
2013-2-6,32,28,18,29,26,16,98,93,87,30.24,29.84,6,2,20,0.08
2013-2-7,34,26,15,31,24,13,98,92,89,30.25,30.01,7,2,20,0.00
2013-2-8,36,31,25,36,30,24,100,98,92,30.01,29.73,9,4,27,0.08
2013-2-9,32,24,18,27,22,15,96,90,79,30.29,29.99,9,2,26,0.02
2013-2-10,42,26,10,30,21,8,93,80,62,30.28,30.01,6,1,17,0.00
2013-2-11,57,43,34,50,39,29,100,86,58,30.01,29.66,7,3,26,0.00
2013-2-12,45,37,31,37,32,28,91,82,71,29.97,29.83,9,4,29,0.00
2013-2-13,40,33,27,34,30,25,99,91,73,29.88,29.60,4,0,11,0.17
2013-2-14,41,33,27,37,31,26,98,91,83,29.89,29.74,6,1,15,0.00
2013-2-15,44,36,32,37,33,30,98,91,75,29.97,29.86,6,1,19,0.01
2013-2-16,31,26,21,30,24,19,95,88,78,29.94,29.78,6,1,16,0.03
2013-2-17,24,19,14,21,16,10,95,90,82,30.11,29.76,9,3,26,0.42
2013-2-18,41,23,7,32,17,5,91,79,63,30.19,29.93,5,0,14,0.00
2013-2-19,41,36,25,40,33,23,98,90,71,29.93,29.59,8,4,30,0.18
2013-2-20,25,20,18,23,18,15,94,90,83,30.06,29.79,9,6,33,0.09
2013-2-21,25,20,16,22,17,14,94,91,87,30.24,30.03,8,3,20,0.07
2013-2-22,28,25,18,28,24,16,99,94,85,30.19,30.01,9,2,20,0.03
2013-2-23,48,36,28,45,35,28,100,97,87,30.01,29.78,2,0,10,0.00
2013-2-24,35,30,26,35,29,24,99,94,90,30.04,29.78,7,3,21,0.04
2013-2-25,40,31,24,32,27,23,96,84,68,30.14,30.03,4,0,14,0.00
2013-2-26,35,33,31,35,30,26,100,89,78,30.06,29.59,9,3,25,0.22
2013-2-27,40,36,33,38,35,33,100,99,94,29.65,29.53,7,1,18,0.15
2013-2-28,34,32,31,34,32,30,99,96,93,29.70,29.56,7,2,19,0.11
2013-3-1,33,30,26,32,29,25,99,96,91,29.86,29.70,6,3,16,0.14
2013-3-2,28,25,23,26,23,22,95,93,87,29.83,29.78,6,2,16,0.15
2013-3-3,30,25,22,25,23,20,97,92,82,29.87,29.78,7,4,19,0.15
2013-3-4,34,26,20,27,22,18,94,86,74,29.98,29.86,7,3,21,0.04
2013-3-5,44,31,16,30,23,14,92,74,43,29.98,29.65,8,2,26,0.00
2013-3-6,38,33,30,35,31,29,99,93,84,30.02,29.62,7,2,19,0.40
2013-3-7,40,34,32,35,32,30,95,91,80,30.17,30.01,6,2,17,0.03
2013-3-8,36,31,25,33,29,23,96,92,86,30.32,30.15,7,3,21,0.02
2013-3-9,51,34,19,39,28,17,97,79,52,30.32,30.20,2,0,9,0.00
2013-3-10,57,48,38,41,34,28,70,60,53,30.20,30.06,8,2,18,0.00
2013-3-11,53,50,47,48,40,35,98,69,58,30.06,29.76,9,5,24,0.06
2013-3-12,49,42,36,49,41,34,100,97,91,29.87,29.75,9,3,23,0.38
2013-3-14,33,29,23,27,25,21,91,83,77,30.09,30.02,7,6,20,0.04
2013-3-15,47,42,26,40,37,23,90,80,76,29.96,29.76,8,4,23,0.00
2013-3-16,44,40,36,44,40,36,100,98,88,29.88,29.58,6,1,15,0.08
2013-3-17,36,32,28,36,30,27,100,90,80,30.14,29.87,6,1,14,0.00
2013-3-18,31,29,27,31,28,26,100,95,86,30.11,29.74,9,5,26,0.19
2013-3-19,45,36,31,35,32,25,100,84,59,29.88,29.67,9,4,29,0.00
2013-3-20,39,32,27,31,26,22,93,78,65,29.88,29.72,9,4,25,0.00
2013-3-21,27,24,18,25,20,16,93,84,75,29.79,29.71,8,3,26,0.06
2013-3-22,34,27,23,28,24,21,93,88,78,29.93,29.78,10,4,23,0.03
2013-3-23,44,31,19,34,26,17,93,82,66,29.96,29.88,7,2,18,0.00
2013-3-24,36,31,26,30,27,24,96,86,75,29.93,29.50,7,2,21,0.05
2013-3-25,37,32,29,35,31,28,99,96,93,29.63,29.41,7,1,21,0.77
2013-3-26,42,34,30,37,32,29,98,93,81,29.98,29.65,6,2,16,0.10
2013-3-27,40,34,31,35,32,30,98,91,77,30.09,29.97,7,3,20,0.17
2013-3-28,38,35,32,36,33,31,97,93,89,30.19,30.04,6,3,19,0.06
2013-3-29,49,40,33,38,34,31,95,81,64,30.20,30.12,4,0,15,0.00
2013-3-30,51,39,28,36,32,26,92,75,54,30.19,30.04,1,0,8,0.00
2013-3-31,45,42,37,45,38,-100,100,87,66,30.04,29.70,6,1,20,0.24
2013-4-1,45,40,33,44,36,24,99,87,66,29.93,29.68,9,4,22,0.04
2013-4-2,39,32,26,29,25,23,92,76,63,30.11,29.92,8,4,26,0.00
2013-4-3,41,32,27,29,24,19,82,70,58,30.32,30.09,9,3,24,0.00
2013-4-4,45,34,19,28,23,16,91,67,44,30.31,29.96,8,2,20,0.00
2013-4-5,56,43,32,41,33,27,88,67,53,30.09,29.88,9,2,27,0.00
2013-4-6,53,41,27,31,28,24,89,62,39,30.22,30.09,6,2,18,0.00
2013-4-7,69,56,46,54,43,31,93,63,53,30.09,29.91,8,4,23,0.06
2013-5-10,-200,0,200,-100,-100,-100,88,84,81,30.01,29.96,4,2,12,0.00
2013-5-13,46,42,40,35,34,33,76,71,64,30.14,30.07,0,0,5,0.00
2013-5-14,58,45,31,45,37,29,92,75,57,30.16,29.97,4,0,12,0.00
2013-5-15,82,65,50,67,57,43,92,74,58,29.97,29.78,7,2,24,0.03
2013-5-16,75,63,61,66,39,-100,98,82,63,30.02,29.83,6,2,16,0.15
2013-5-17,79,65,59,65,52,-100,99,82,52,30.14,30.02,4,0,16,0.00
2013-5-18,74,65,57,65,59,52,98,82,67,30.19,30.12,6,3,14,0.00
2013-5-19,65,61,58,63,60,58,100,98,93,30.18,30.09,6,1,14,0.02
2013-5-20,85,72,59,71,66,59,100,85,62,30.11,30.01,0,0,0,0.00
2013-5-21,85,75,64,73,68,63,98,80,60,30.05,29.93,0,0,0,0.00
2013-5-22,85,73,67,70,66,62,93,78,56,29.98,29.87,7,1,26,0.00
2013-5-23,77,67,61,67,63,60,100,90,64,29.93,29.80,6,1,17,0.46
2013-5-24,61,47,41,60,45,37,97,91,81,30.22,29.84,7,4,25,0.01
2013-5-25,60,48,37,48,41,35,96,79,59,30.23,30.16,8,3,26,0.00
2013-5-26,65,54,39,50,44,36,90,70,54,30.25,30.19,6,1,21,0.00
2013-5-27,62,54,40,53,46,38,92,77,60,30.28,30.16,2,0,11,0.00
2013-5-28,74,62,54,70,60,52,100,93,76,30.17,30.06,8,1,22,0.80
2013-5-29,82,71,60,69,64,59,97,79,56,30.17,30.09,6,1,20,0.00
2013-5-30,87,75,60,70,65,58,93,74,51,30.27,30.16,3,0,11,0.00
2013-5-31,88,76,63,70,66,61,93,73,51,30.22,30.09,3,0,11,0.00
2013-6-1,86,76,66,71,68,64,96,78,55,30.10,29.94,6,1,16,0.01
2013-6-2,80,72,67,69,66,-100,95,83,67,29.94,29.88,6,1,19,0.01
2013-6-3,68,64,56,65,62,54,98,92,82,30.05,29.91,4,1,14,0.01
2013-6-4,72,60,44,57,51,42,93,74,57,30.16,30.05,4,0,13,0.00
2013-6-5,75,64,50,63,57,48,93,78,66,30.17,30.01,7,3,17,0.00
2013-6-6,66,62,59,63,61,59,100,97,87,30.03,29.84,9,5,22,0.40
2013-6-7,66,63,61,66,63,60,100,100,100,29.85,29.74,2,0,12,0.29
2013-6-8,69,61,56,64,59,56,100,94,79,30.15,29.84,5,1,12,0.00
2013-6-9,77,67,55,68,63,54,99,87,70,30.22,30.11,8,2,16,0.00
2013-6-10,75,68,64,72,67,63,100,96,84,30.12,29.85,7,2,18,0.30
2013-6-11,72,66,63,70,65,62,100,96,88,29.94,29.84,6,2,20,0.05
2013-6-12,81,72,66,73,69,65,98,90,71,29.96,29.86,5,2,14,0.00
2013-6-13,73,67,59,72,66,57,100,95,87,29.85,29.58,9,4,27,1.04
2013-6-14,73,62,56,63,58,55,96,87,68,30.07,29.76,6,2,22,0.00
2013-6-15,75,60,54,61,56,53,98,90,61,30.14,30.05,4,0,10,0.00
2013-6-16,73,67,61,70,65,59,99,94,83,30.09,29.96,7,2,20,0.15
2013-6-17,79,70,65,72,67,64,100,90,69,30.03,29.97,5,1,10,0.15
2013-6-18,76,68,62,72,66,61,99,94,84,30.01,29.88,4,0,12,0.11
2013-6-19,77,68,58,64,61,57,99,80,57,30.18,29.97,4,1,10,0.00
2013-6-20,82,69,57,67,61,55,93,79,55,30.27,30.18,4,0,10,0.00
2013-6-22,86,82,77,71,69,67,79,67,57,30.28,30.17,4,1,11,0.00
2013-6-23,86,76,65,73,69,63,95,79,57,30.23,30.14,4,1,11,0.00
2013-6-24,84,74,66,72,69,64,94,84,66,30.22,30.11,4,0,12,0.00
2013-6-25,87,76,67,72,69,66,97,81,60,30.14,29.98,8,2,19,0.41
2013-6-26,78,71,66,73,69,65,100,94,83,30.05,29.91,6,1,13,0.60
2013-6-27,70,68,65,70,68,64,100,99,97,29.92,29.70,2,0,12,0.45
2013-6-28,76,68,63,73,67,62,100,98,89,29.70,29.57,5,1,14,3.20
2013-6-29,75,66,60,71,64,60,100,92,74,29.78,29.59,5,1,12,0.34
2013-6-30,82,71,60,71,66,59,98,85,61,29.91,29.75,5,1,14,0.00
2013-7-1,79,72,68,73,69,68,99,93,78,30.01,29.89,6,1,11,0.03
2013-7-2,79,73,68,74,71,68,100,95,81,30.16,30.01,6,2,14,0.09
2013-7-3,83,73,68,74,71,67,98,92,70,30.27,30.16,5,1,16,0.12
2013-7-4,83,75,68,75,71,68,99,88,67,30.30,30.22,6,1,13,0.00
2013-7-5,86,76,68,75,71,67,97,87,64,30.27,30.19,6,1,14,0.00
2013-7-6,85,76,70,75,72,69,99,87,65,30.27,30.14,6,1,13,0.01
2013-7-7,83,74,70,73,71,68,98,92,72,30.19,30.09,5,1,24,0.50
2013-7-8,81,70,67,72,66,-100,100,93,70,30.19,30.14,5,0,12,0.00
2013-7-9,78,73,67,76,72,67,100,97,91,30.18,30.07,4,1,13,0.33
2013-7-10,82,71,67,76,68,-100,100,93,78,30.11,29.93,8,1,21,1.70
2013-7-11,77,69,66,72,67,65,100,93,76,30.03,29.93,5,1,12,0.00
2013-7-12,71,67,61,68,65,61,100,94,85,30.14,30.01,5,1,10,0.09
2013-7-13,78,71,64,72,68,64,100,92,76,30.33,30.14,6,2,15,0.00
2013-7-14,85,77,69,73,71,69,100,82,65,30.40,30.32,8,3,21,0.00
2013-7-15,89,76,67,74,70,66,95,83,61,30.42,30.35,4,1,11,0.00
2013-7-16,90,78,71,77,73,69,96,84,62,30.40,30.32,4,1,12,0.00
2013-7-17,90,79,72,77,74,70,98,85,61,30.38,30.25,4,1,11,0.00
2013-7-18,91,80,71,79,75,70,99,85,62,30.29,30.15,5,1,10,0.00
2013-7-19,88,79,74,79,74,72,97,88,69,30.15,29.99,5,2,12,0.00
2013-7-20,76,73,70,75,72,70,100,97,93,30.01,29.96,4,1,12,0.63
2013-7-21,80,77,73,74,72,71,96,85,74,30.03,29.98,4,1,9,0.00
2013-7-22,77,72,68,75,71,67,100,98,89,30.03,29.85,4,0,9,0.85
2013-7-23,79,70,66,72,69,65,100,97,79,29.85,29.78,6,1,13,0.53
2013-7-24,71,65,59,66,62,57,100,91,71,30.01,29.79,4,1,12,0.01
2013-7-25,74,63,54,61,57,53,98,83,55,30.14,30.01,4,1,15,0.00
2013-7-26,61,57,53,58,55,51,95,93,91,30.12,30.09,0,0,0,0.00
2013-7-27,69,68,66,68,67,65,99,97,97,29.98,29.93,4,1,9,0.63
2013-7-28,75,66,61,66,64,59,100,92,65,30.09,29.91,6,1,15,0.16
2013-7-29,70,59,54,62,56,52,95,90,71,30.22,30.07,5,1,13,0.00
2013-7-30,74,63,57,63,60,55,96,90,67,30.27,30.22,4,0,12,0.00
2013-7-31,75,64,57,67,60,56,97,89,70,30.22,30.02,2,0,7,0.00
2013-8-1,78,69,65,71,67,64,100,92,71,30.03,29.92,6,1,14,0.02
2013-8-2,75,64,59,65,62,58,98,91,66,30.02,29.96,5,0,11,0.00
2013-8-3,68,66,62,67,65,60,99,96,90,30.03,29.98,4,0,12,0.07
2013-8-4,70,61,56,61,58,56,100,91,69,30.11,30.01,6,1,15,0.01
2013-8-5,70,59,52,60,56,50,98,89,69,30.15,30.06,4,0,8,0.00
2013-8-6,78,68,57,66,62,55,96,81,61,30.07,30.04,6,1,14,0.00
2013-8-7,83,71,66,74,69,65,99,92,69,30.10,30.01,8,2,25,1.77
2013-8-8,79,71,64,76,70,64,100,97,88,30.06,30.01,6,1,12,0.47
2013-8-9,77,72,70,76,71,70,100,100,97,30.04,29.97,4,0,12,1.68
2013-8-10,79,69,64,70,67,64,100,94,69,30.16,30.07,4,0,10,0.01
2013-8-11,83,72,61,72,67,60,97,84,63,30.17,30.09,4,0,12,0.01
2013-8-12,81,71,68,71,69,68,99,94,68,30.12,29.98,3,0,10,0.00
2013-8-13,73,67,60,70,63,-100,100,91,81,29.98,29.85,5,2,16,0.46
2013-8-14,64,57,52,59,50,-100,96,88,80,30.14,29.97,5,2,17,0.00
2013-8-18,69,63,59,66,59,-100,97,91,88,30.29,30.19,5,1,11,0.09
2013-8-19,77,61,62,72,46,-100,100,94,83,30.20,30.14,4,1,11,0.93
2013-8-20,79,64,58,68,60,-100,100,93,64,30.25,30.16,2,0,10,0.00
2013-8-21,81,70,59,73,66,58,98,89,71,30.25,30.15,5,1,10,0.08
2013-8-22,80,70,65,74,69,65,100,95,77,30.18,30.05,7,1,17,0.60
2013-8-23,73,67,63,68,66,63,100,95,78,30.18,30.05,4,0,8,0.95
2013-8-24,76,68,58,66,62,58,99,84,63,30.37,30.20,3,0,11,0.00
2013-8-25,78,65,55,66,58,-100,95,84,66,30.42,30.31,3,0,10,0.00
2013-8-26,81,68,58,70,64,57,97,88,66,30.33,30.10,4,1,13,0.00
2013-8-27,78,72,69,73,36,-100,98,77,91,30.10,30.06,5,1,10,0.00
2013-8-28,73,72,70,72,-21,-100,100,46,100,29.97,29.91,3,0,11,0.00
2013-8-29,80,73,67,72,70,67,100,91,69,30.11,29.96,4,1,10,0.00
2013-8-30,83,70,61,73,67,60,99,91,70,30.10,29.93,4,0,11,0.00
2013-8-31,81,72,67,74,70,66,100,92,71,29.96,29.88,6,1,12,0.00
2013-9-1,79,71,68,74,67,-100,99,91,81,29.93,29.86,4,1,10,0.00
2013-9-2,82,72,67,73,70,66,100,92,72,29.89,29.83,6,1,15,0.00
2013-9-3,73,67,63,70,64,60,98,91,69,30.06,29.87,6,1,16,0.19
2013-9-4,75,64,54,60,-29,-100,99,43,91,30.14,30.05,4,1,10,0.00
2013-9-5,73,63,58,60,-6,-100,99,54,67,30.22,30.10,6,1,19,0.00
2013-9-6,72,60,47,55,-7,-100,94,50,51,30.27,30.17,3,0,7,0.00
2013-9-12,79,71,67,73,66,-100,100,95,86,30.11,29.85,6,1,17,0.07
2013-9-13,65,59,51,64,34,-100,97,80,81,30.01,29.83,5,2,14,0.06
2013-9-14,61,52,48,51,-23,-100,97,48,73,30.16,30.01,3,1,10,0.00
2013-9-15,71,53,43,60,-20,-100,97,43,67,30.20,30.10,4,0,12,0.00
2013-9-16,66,58,55,60,57,54,100,93,78,30.29,30.09,4,1,13,0.27
2013-9-17,64,55,49,54,50,44,98,83,64,30.40,30.29,4,1,14,0.00
2013-9-18,55,45,43,48,43,41,95,91,81,30.32,30.18,0,0,0,0.00
2013-9-19,71,61,55,66,59,53,100,94,84,30.19,30.09,3,0,8,0.00
2013-9-20,76,64,55,72,62,54,100,94,77,30.10,29.93,5,1,9,0.00
2013-9-21,69,63,58,68,63,58,100,99,95,29.93,29.70,7,1,16,1.33
2013-9-22,60,55,52,57,52,-100,100,93,79,30.01,29.79,6,1,14,0.04
2013-9-23,56,51,44,51,48,42,95,89,78,30.11,30.01,2,0,10,0.00
2013-9-24,67,49,37,55,45,36,99,87,63,30.11,29.98,0,0,6,0.00
2013-9-25,66,54,44,56,50,43,97,86,65,30.01,29.92,2,0,9,0.00
2013-9-26,71,57,47,56,51,46,98,83,53,30.10,29.97,3,0,10,0.00
2013-9-27,69,56,47,58,52,45,95,88,67,30.23,30.10,3,0,9,0.00
2013-9-28,64,57,52,57,54,51,100,90,73,30.31,30.22,6,2,18,0.00
2013-9-29,68,56,46,58,50,-100,97,85,69,30.22,30.06,3,0,9,0.00
2013-9-30,69,58,48,63,56,47,98,93,81,30.09,30.02,1,0,8,0.00
2013-10-18,52,48,44,49,46,42,97,93,85,30.01,29.88,6,3,16,0.00
2013-10-19,55,45,36,50,43,35,99,94,82,29.99,29.75,7,1,20,0.15
2013-10-20,50,42,38,44,37,-100,98,89,79,30.06,29.91,6,1,15,0.00
2013-10-21,53,41,35,46,38,34,96,91,74,30.07,29.89,0,0,3,0.00
2013-10-22,51,46,38,48,43,35,97,88,63,29.92,29.83,6,1,14,0.05
2013-10-23,42,39,37,41,38,36,99,96,91,29.87,29.68,5,0,13,0.08
2013-10-24,42,37,34,37,34,33,97,92,75,30.09,29.86,6,2,25,0.04
2013-10-25,42,36,33,39,35,32,100,94,84,30.27,30.09,6,1,15,0.00
2013-10-26,45,32,30,36,31,29,98,96,71,30.22,29.91,6,1,22,0.00
2013-10-27,47,39,35,40,32,-100,94,84,74,30.09,29.92,6,1,19,0.00
2013-10-28,51,37,30,43,32,-100,96,89,70,30.27,30.09,1,0,6,0.00
2013-10-29,51,40,33,43,37,31,95,89,74,30.35,30.27,0,0,5,0.00
2013-10-30,61,52,42,57,49,40,97,91,83,30.27,30.14,2,0,8,0.00
2013-12-31,26,24,22,25,22,20,98,94,90,30.18,29.97,8,3,24,0.17
2014-1-1,34,27,24,30,24,22,93,90,81,30.22,30.01,5,1,19,0.00
2014-1-2,33,28,17,31,27,15,98,94,90,29.97,29.58,6,1,16,0.19